Airport ICAO


12:35 UTC

8°C

Broken clouds


An affordable passengers' Moving Map for your aircraft. Made for the iPad and the iPhone
More information here

EGWU Northolt


Northolt UNITED KINGDOM   VFR


METAR EGWU 101150Z 29009KT 9999 FEW035 BKN042 08/05 Q1027 BLU NOSIG 0h45min

TAF EGWU 101043Z 1012/1106 29008KT 9999 FEW016 BKN045 PROB30 TEMPO 1012/1017 SCT018 BECMG 1022/1101 5000 HZ PROB40 1101/1106 2500 BR PROB30 1102/1106 0300 FG VV/// 1h52min





NOTAMS

OPEN